createdAt,value
2018-06-04T00:02:30.289Z,90.70
2018-06-04T00:05:11.626Z,90.70
2018-06-04T00:07:54.011Z,90.80
2018-06-04T00:10:35.472Z,90.80
2018-06-04T00:13:16.804Z,90.90
2018-06-04T00:15:58.504Z,90.90
2018-06-04T00:18:39.802Z,90.80
2018-06-04T00:21:21.097Z,90.80
2018-06-04T00:24:02.464Z,90.80
2018-06-04T00:26:43.797Z,90.90
2018-06-04T00:29:25.714Z,90.80
2018-06-04T00:32:07.314Z,90.90
2018-06-04T00:34:48.645Z,90.90
2018-06-04T00:37:30.497Z,90.90
2018-06-04T00:40:11.921Z,90.80
2018-06-04T00:42:53.989Z,90.80
2018-06-04T00:45:35.388Z,91.10
2018-06-04T00:48:16.719Z,90.60
2018-06-04T00:50:58.497Z,90.70
2018-06-04T00:53:39.796Z,90.70
2018-06-04T00:56:23.004Z,90.80
2018-06-04T00:59:04.478Z,90.90
2018-06-04T01:01:45.751Z,90.90
2018-06-04T01:04:27.303Z,91.00
2018-06-04T01:07:08.724Z,91.00
2018-06-04T01:09:50.082Z,91.00
2018-06-04T01:12:31.417Z,91.00
2018-06-04T01:15:12.621Z,91.00
2018-06-04T01:17:54.589Z,91.20
2018-06-04T01:20:35.922Z,91.20
2018-06-04T01:23:17.367Z,91.10
2018-06-04T01:25:58.752Z,91.00
2018-06-04T01:28:40.031Z,91.00
2018-06-04T01:31:21.480Z,91.00
2018-06-04T01:34:02.681Z,91.00
2018-06-04T01:36:44.004Z,91.10
2018-06-04T01:39:25.722Z,91.10
2018-06-04T01:42:07.108Z,91.10
2018-06-04T01:44:48.454Z,91.00
2018-06-04T01:47:30.050Z,90.70
2018-06-04T01:50:11.527Z,90.70
2018-06-04T01:52:53.056Z,90.60
2018-06-04T01:55:34.338Z,90.50
2018-06-04T01:58:15.672Z,90.60
2018-06-04T02:01:23.056Z,90.80
2018-06-04T02:04:06.304Z,90.70
2018-06-04T02:06:47.597Z,90.70
2018-06-04T02:09:29.248Z,90.70
2018-06-04T02:12:10.515Z,90.80
2018-06-04T02:14:53.263Z,90.80
2018-06-04T02:17:34.523Z,91.10
2018-06-04T02:20:16.008Z,91.20
2018-06-04T02:22:57.480Z,91.20
2018-06-04T02:25:38.892Z,91.20
2018-06-04T02:28:20.421Z,91.20
2018-06-04T02:31:01.827Z,91.30
2018-06-04T02:33:43.276Z,91.30
2018-06-04T02:36:24.793Z,91.30
2018-06-04T02:39:08.148Z,91.10
2018-06-04T02:41:49.392Z,91.10
2018-06-04T02:44:31.171Z,91.10
2018-06-04T02:47:12.539Z,91.10
2018-06-04T02:49:54.181Z,91.20
2018-06-04T02:52:35.426Z,91.20
2018-06-04T02:55:16.707Z,91.40
2018-06-04T02:57:58.167Z,91.30
2018-06-04T03:00:39.429Z,91.30
2018-06-04T03:03:21.433Z,91.40
2018-06-04T03:06:02.629Z,91.50
2018-06-04T03:08:44.306Z,91.50
2018-06-04T03:11:26.445Z,91.50
2018-06-04T03:14:07.900Z,91.60
2018-06-04T03:16:52.296Z,91.50
2018-06-04T03:19:33.736Z,91.60
2018-06-04T03:22:15.370Z,91.50
2018-06-04T03:24:56.980Z,91.50
2018-06-04T03:27:38.413Z,91.40
2018-06-04T03:30:20.492Z,91.50
2018-06-04T03:33:01.844Z,91.50
2018-06-04T03:35:43.296Z,91.50
2018-06-04T03:38:24.885Z,91.60
2018-06-04T03:41:06.734Z,91.50
2018-06-04T03:43:48.061Z,91.50
2018-06-04T03:46:30.233Z,91.30
2018-06-04T03:49:12.073Z,91.40
2018-06-04T03:51:54.384Z,91.40
2018-06-04T03:57:16.820Z,91.50
2018-06-04T03:59:58.243Z,91.50
2018-06-04T04:02:39.561Z,91.40
2018-06-04T04:05:21.946Z,91.40
2018-06-04T04:08:03.141Z,91.30
2018-06-04T04:10:44.497Z,91.20
2018-06-04T04:13:26.552Z,91.10
2018-06-04T04:16:07.958Z,91.20
2018-06-04T04:18:49.212Z,91.00
2018-06-04T04:21:30.648Z,91.00
2018-06-04T04:24:11.910Z,90.90
2018-06-04T04:26:54.356Z,90.80
2018-06-04T04:29:35.644Z,90.80
2018-06-04T04:32:16.839Z,90.70
2018-06-04T04:34:58.472Z,90.50
2018-06-04T04:37:39.749Z,90.50
2018-06-04T04:40:22.131Z,90.40
2018-06-04T04:43:03.501Z,90.40
2018-06-04T04:45:44.908Z,90.40
2018-06-04T04:48:26.336Z,90.30
2018-06-04T04:51:08.028Z,90.20
2018-06-04T04:53:49.446Z,90.10
2018-06-04T04:56:30.922Z,90.10
2018-06-04T04:59:12.243Z,90.00
2018-06-04T05:01:54.116Z,89.80
2018-06-04T05:04:35.392Z,89.60
2018-06-04T05:07:16.605Z,89.50
2018-06-04T05:09:57.964Z,89.30
2018-06-04T05:12:39.315Z,89.50
2018-06-04T05:15:21.541Z,89.50
2018-06-04T05:18:02.681Z,88.70
2018-06-04T05:23:26.098Z,88.30
2018-06-04T05:26:07.347Z,87.80
2018-06-04T05:28:48.816Z,87.10
2018-06-04T05:31:31.366Z,86.80
2018-06-04T05:34:12.704Z,86.10
2018-06-04T05:36:54.501Z,85.30
2018-06-04T05:39:35.920Z,84.90
2018-06-04T05:42:20.496Z,85.10
2018-06-04T05:45:01.640Z,85.20
2018-06-04T05:47:42.984Z,85.30
2018-06-04T05:50:25.520Z,85.30
2018-06-04T05:53:06.940Z,84.80
2018-06-04T05:55:48.226Z,83.40
2018-06-04T05:58:29.985Z,84.80
2018-06-04T06:01:12.332Z,83.70
2018-06-04T06:03:54.185Z,83.00
2018-06-04T06:06:35.493Z,82.10
2018-06-04T06:09:16.942Z,81.10
2018-06-04T06:11:58.224Z,82.50
2018-06-04T06:14:39.521Z,83.60
2018-06-04T06:17:21.770Z,82.10
2018-06-04T06:20:03.226Z,82.00
2018-06-04T06:22:44.662Z,82.30
2018-06-04T06:25:26.008Z,82.30
2018-06-04T06:28:07.440Z,82.80
2018-06-04T06:30:48.794Z,82.90
2018-06-04T06:33:30.704Z,82.90
2018-06-04T06:36:12.075Z,82.00
2018-06-04T06:38:53.417Z,82.10
2018-06-04T06:42:05.532Z,82.00
2018-06-04T06:44:47.279Z,82.00
2018-06-04T06:47:29.060Z,82.80
2018-06-04T06:50:10.617Z,82.40
2018-06-04T06:52:53.408Z,82.00
2018-06-04T06:55:34.742Z,82.40
2018-06-04T06:58:16.125Z,81.80
2018-06-04T07:00:57.901Z,81.20
2018-06-04T07:03:39.381Z,80.90
2018-06-04T07:06:21.703Z,79.60
2018-06-04T07:09:05.400Z,79.60
2018-06-04T07:11:46.749Z,79.10
2018-06-04T07:14:28.066Z,78.90
2018-06-04T07:17:09.286Z,79.20
2018-06-04T07:19:51.376Z,76.80
2018-06-04T07:22:32.969Z,75.00
2018-06-04T07:25:14.216Z,74.80
2018-06-04T07:30:36.532Z,74.10
2018-06-04T07:33:17.901Z,73.90
2018-06-04T07:36:11.960Z,72.50
2018-06-04T07:38:53.262Z,72.10
2018-06-04T07:41:34.406Z,71.20
2018-06-04T07:44:15.738Z,70.00
2018-06-04T07:46:58.205Z,70.10
2018-06-04T07:49:39.692Z,68.40
2018-06-04T07:52:22.094Z,68.10
2018-06-04T07:55:03.492Z,68.50
2018-06-04T07:57:44.779Z,66.40
2018-06-04T08:00:26.288Z,66.70
2018-06-04T08:03:07.556Z,67.20
2018-06-04T08:05:48.841Z,65.90
2018-06-04T08:08:30.223Z,65.70
2018-06-04T08:11:11.516Z,66.30
2018-06-04T08:13:53.412Z,66.10
2018-06-04T08:16:34.696Z,65.10
2018-06-04T08:19:16.021Z,65.00
2018-06-04T08:21:57.493Z,64.30
2018-06-04T08:24:38.789Z,65.00
2018-06-04T08:27:21.407Z,63.50
2018-06-04T08:30:03.033Z,64.80
2018-06-04T08:32:44.577Z,67.00
2018-06-04T08:35:26.095Z,66.90
2018-06-04T08:38:07.590Z,67.00
2018-06-04T08:40:48.878Z,67.60
2018-06-04T08:43:30.365Z,65.20
2018-06-04T08:46:11.664Z,65.10
2018-06-04T08:48:53.458Z,64.20
2018-06-04T08:51:34.893Z,64.80
2018-06-04T08:54:19.016Z,63.40
2018-06-04T08:57:00.628Z,64.10
2018-06-04T08:59:42.010Z,64.30
2018-06-04T09:02:23.323Z,65.20
2018-06-04T09:05:05.336Z,64.50
2018-06-04T09:07:46.725Z,66.10
2018-06-04T09:10:28.010Z,62.30
2018-06-04T09:13:09.156Z,62.80
2018-06-04T09:15:51.455Z,62.90
2018-06-04T09:18:32.961Z,62.00
2018-06-04T09:21:14.249Z,61.70
2018-06-04T09:23:56.290Z,61.30
2018-06-04T09:26:37.728Z,61.30
2018-06-04T09:29:19.017Z,63.10
2018-06-04T09:32:00.407Z,64.60
2018-06-04T09:34:41.829Z,65.80
2018-06-04T09:37:23.423Z,63.80
2018-06-04T09:40:04.832Z,65.30
2018-06-04T09:42:46.171Z,61.60
2018-06-04T09:45:27.662Z,63.30
2018-06-04T09:48:09.105Z,63.70
2018-06-04T09:50:51.320Z,63.50
2018-06-04T09:53:33.541Z,65.50
2018-06-04T09:56:14.819Z,65.00
2018-06-04T09:58:56.085Z,65.60
2018-06-04T10:01:37.902Z,66.90
2018-06-04T10:04:19.383Z,64.40
2018-06-04T10:09:41.689Z,63.20
2018-06-04T10:15:04.357Z,64.50
2018-06-04T10:17:45.919Z,64.00
2018-06-04T10:20:27.999Z,63.80
2018-06-04T10:23:09.422Z,63.00
2018-06-04T10:25:51.535Z,63.20
2018-06-04T10:28:32.982Z,64.20
2018-06-04T10:31:14.298Z,63.10
2018-06-04T10:33:56.178Z,63.00
2018-06-04T10:36:37.534Z,61.00
2018-06-04T10:39:18.803Z,61.70
2018-06-04T10:42:00.145Z,61.20
2018-06-04T10:44:41.512Z,61.20
2018-06-04T10:47:24.400Z,61.00
2018-06-04T10:50:05.716Z,60.90
2018-06-04T10:52:47.078Z,61.00
2018-06-04T10:55:28.315Z,61.00
2018-06-04T10:58:09.493Z,61.00
2018-06-04T11:00:51.402Z,61.10
2018-06-04T11:03:32.953Z,61.20
2018-06-04T11:06:14.386Z,61.10
2018-06-04T11:08:56.146Z,61.00
2018-06-04T11:11:37.600Z,62.30
2018-06-04T11:14:18.998Z,61.00
2018-06-04T11:17:00.293Z,61.20
2018-06-04T11:19:41.772Z,60.90
2018-06-04T11:22:23.218Z,60.80
2018-06-04T11:25:04.559Z,60.90
2018-06-04T11:27:45.814Z,60.80
2018-06-04T11:30:27.199Z,60.80
2018-06-04T11:33:08.526Z,60.90
2018-06-04T11:35:50.308Z,60.90
2018-06-04T11:38:31.860Z,60.90
2018-06-04T11:41:13.423Z,60.90
2018-06-04T11:43:55.399Z,61.00
2018-06-04T11:46:36.779Z,61.00
2018-06-04T11:49:18.032Z,61.00
2018-06-04T11:52:00.112Z,61.10
2018-06-04T11:54:41.741Z,61.00
2018-06-04T11:57:23.250Z,61.10
2018-06-04T12:00:04.574Z,60.10
2018-06-04T12:02:45.935Z,60.90
2018-06-04T12:05:28.129Z,60.80
2018-06-04T12:08:09.536Z,60.70
2018-06-04T12:10:51.735Z,60.70
2018-06-04T12:13:33.052Z,60.70
2018-06-04T12:16:14.723Z,60.80
2018-06-04T12:18:57.184Z,60.80
2018-06-04T12:21:38.787Z,60.80
2018-06-04T12:24:20.418Z,60.70
2018-06-04T12:27:01.666Z,62.00
2018-06-04T12:29:44.693Z,60.80
2018-06-04T12:32:26.079Z,60.00
2018-06-04T12:35:07.604Z,60.10
2018-06-04T12:37:48.921Z,60.00
2018-06-04T12:40:30.307Z,59.40
2018-06-04T12:43:12.004Z,59.80
2018-06-04T12:45:54.355Z,59.40
2018-06-04T12:48:35.694Z,59.20
2018-06-04T12:51:16.936Z,59.10
2018-06-04T12:53:58.431Z,58.50
2018-06-04T12:56:40.148Z,59.20
2018-06-04T12:59:23.213Z,59.10
2018-06-04T13:02:04.544Z,58.30
2018-06-04T13:04:45.842Z,57.90
2018-06-04T13:07:27.060Z,57.00
2018-06-04T13:10:08.535Z,58.00
2018-06-04T13:12:50.219Z,56.60
2018-06-04T13:15:31.398Z,56.70
2018-06-04T13:18:12.806Z,57.00
2018-06-04T13:20:54.892Z,57.20
2018-06-04T13:23:36.366Z,58.10
2018-06-04T13:26:17.731Z,57.70
2018-06-04T13:28:59.604Z,58.60
2018-06-04T13:31:41.110Z,58.10
2018-06-04T13:34:23.539Z,58.60
2018-06-04T13:37:04.885Z,59.60
2018-06-04T13:39:46.804Z,59.40
2018-06-04T13:42:28.639Z,59.60
2018-06-04T13:45:10.052Z,60.60
2018-06-04T13:47:51.766Z,60.80
2018-06-04T13:50:33.063Z,60.30
2018-06-04T13:53:14.319Z,59.40
2018-06-04T13:55:55.979Z,58.60
2018-06-04T13:58:37.431Z,57.50
2018-06-04T14:01:18.872Z,57.40
2018-06-04T14:04:00.335Z,56.90
2018-06-04T14:06:41.833Z,57.10
2018-06-04T14:09:23.383Z,57.60
2018-06-04T14:12:04.577Z,57.60
2018-06-04T14:14:46.145Z,57.10
2018-06-04T14:17:27.642Z,57.10
2018-06-04T14:20:08.813Z,56.10
2018-06-04T14:22:50.768Z,57.30
2018-06-04T14:25:32.184Z,56.80
2018-06-04T14:28:13.538Z,56.80
2018-06-04T14:30:55.478Z,56.30
2018-06-04T14:33:37.175Z,55.80
2018-06-04T14:36:20.423Z,55.80
2018-06-04T14:39:01.916Z,56.40
2018-06-04T14:41:43.341Z,56.90
2018-06-04T14:44:25.889Z,57.00
2018-06-04T14:47:07.250Z,57.70
2018-06-04T14:49:48.614Z,57.20
2018-06-04T14:52:30.166Z,57.10
2018-06-04T14:55:11.479Z,56.30
2018-06-04T14:57:53.356Z,57.00
2018-06-04T15:00:34.733Z,57.40
2018-06-04T15:03:16.834Z,57.20
2018-06-04T15:05:58.367Z,57.10
2018-06-04T15:08:39.639Z,57.30
2018-06-04T15:11:22.032Z,56.10
2018-06-04T15:14:03.642Z,56.30
2018-06-04T15:16:45.057Z,56.00
2018-06-04T15:19:26.564Z,57.00
2018-06-04T15:22:08.637Z,57.20
2018-06-04T15:24:50.381Z,57.10
2018-06-04T15:27:31.873Z,56.70
2018-06-04T15:30:13.291Z,57.70
2018-06-04T15:32:55.494Z,57.70
2018-06-04T15:35:37.553Z,57.50
2018-06-04T15:38:19.046Z,57.30
2018-06-04T15:41:02.032Z,57.50
2018-06-04T15:43:44.304Z,58.00
2018-06-04T15:46:26.163Z,57.50
2018-06-04T15:49:07.530Z,58.00
2018-06-04T15:51:48.899Z,58.30
2018-06-04T15:54:30.341Z,58.40
2018-06-04T15:57:11.847Z,58.40
2018-06-04T15:59:53.357Z,57.90
2018-06-04T16:02:34.734Z,57.80
2018-06-04T16:05:16.265Z,58.00
2018-06-04T16:07:57.713Z,58.40
2018-06-04T16:10:39.447Z,58.40
2018-06-04T16:13:21.454Z,58.50
2018-06-04T16:18:52.052Z,58.60
2018-06-04T16:21:33.756Z,58.90
2018-06-04T16:24:15.219Z,59.30
2018-06-04T16:26:56.764Z,60.60
2018-06-04T16:29:38.304Z,60.60
2018-06-04T16:32:19.800Z,60.60
2018-06-04T16:35:02.025Z,60.60
2018-06-04T16:37:43.951Z,60.60
2018-06-04T16:40:25.927Z,60.60
2018-06-04T16:43:07.800Z,60.50
2018-06-04T16:45:49.322Z,60.50
2018-06-04T16:48:30.581Z,60.50
2018-06-04T16:51:12.021Z,60.30
2018-06-04T16:53:54.705Z,60.30
2018-06-04T16:56:38.451Z,60.40
2018-06-04T16:59:19.878Z,60.40
2018-06-04T17:02:01.411Z,60.30
2018-06-04T17:04:42.992Z,60.30
2018-06-04T17:07:24.857Z,60.30
2018-06-04T17:10:06.474Z,60.30
2018-06-04T17:15:29.069Z,60.40
2018-06-04T17:18:10.431Z,62.20
2018-06-04T17:20:52.269Z,61.20
2018-06-04T17:23:33.670Z,62.00
2018-06-04T17:26:16.128Z,62.20
2018-06-04T17:28:57.603Z,62.50
2018-06-04T17:31:39.223Z,63.00
2018-06-04T17:34:22.795Z,62.70
2018-06-04T17:37:04.436Z,62.80
2018-06-04T17:39:45.935Z,63.20
2018-06-04T17:42:27.353Z,63.20
2018-06-04T17:45:08.705Z,63.20
2018-06-04T17:47:50.137Z,63.50
2018-06-04T17:50:31.540Z,63.10
2018-06-04T17:53:13.121Z,63.30
2018-06-04T17:55:54.967Z,64.00
2018-06-04T17:58:36.519Z,64.80
2018-06-04T18:01:17.807Z,65.00
2018-06-04T18:03:59.831Z,65.50
2018-06-04T18:06:41.165Z,66.10
2018-06-04T18:09:24.044Z,66.10
2018-06-04T18:12:05.484Z,66.50
2018-06-04T18:14:46.893Z,66.70
2018-06-04T18:20:12.667Z,67.40
2018-06-04T18:22:54.232Z,67.30
2018-06-04T18:25:35.624Z,67.40
2018-06-04T18:28:16.971Z,67.60
2018-06-04T18:30:59.007Z,67.40
2018-06-04T18:33:40.238Z,67.50
2018-06-04T18:36:22.351Z,67.90
2018-06-04T18:39:04.393Z,67.80
2018-06-04T18:41:45.903Z,67.80
2018-06-04T18:44:27.328Z,68.10
2018-06-04T18:47:08.835Z,68.40
2018-06-04T18:49:50.226Z,68.50
2018-06-04T18:52:31.879Z,68.90
2018-06-04T18:55:13.777Z,69.40
2018-06-04T18:57:55.649Z,69.60
2018-06-04T19:00:37.141Z,70.40
2018-06-04T19:03:18.695Z,70.80
2018-06-04T19:06:00.849Z,71.20
2018-06-04T19:08:43.089Z,71.40
2018-06-04T19:11:25.079Z,71.70
2018-06-04T19:14:06.802Z,72.20
2018-06-04T19:16:48.255Z,72.20
2018-06-04T19:19:29.615Z,72.80
2018-06-04T19:22:11.079Z,73.50
2018-06-04T19:24:53.123Z,73.80
2018-06-04T19:27:34.464Z,74.20
2018-06-04T19:30:17.918Z,74.20
2018-06-04T19:32:59.420Z,74.10
2018-06-04T19:35:41.096Z,73.90
2018-06-04T19:38:24.238Z,74.90
2018-06-04T19:41:07.048Z,75.00
2018-06-04T19:43:48.542Z,75.00
2018-06-04T19:46:30.038Z,76.30
2018-06-04T19:49:11.478Z,75.70
2018-06-04T19:51:53.964Z,75.30
2018-06-04T19:54:35.384Z,75.50
2018-06-04T19:57:16.776Z,75.70
2018-06-04T19:59:58.622Z,75.90
2018-06-04T20:05:22.767Z,76.70
2018-06-04T20:08:04.217Z,76.60
2018-06-04T20:10:45.706Z,76.90
2018-06-04T20:13:27.094Z,77.00
2018-06-04T20:16:08.607Z,77.50
2018-06-04T20:18:50.204Z,77.40
2018-06-04T20:21:35.168Z,76.80
2018-06-04T20:24:17.140Z,76.60
2018-06-04T20:26:58.511Z,76.90
2018-06-04T20:29:40.138Z,77.10
2018-06-04T20:32:22.371Z,77.10
2018-06-04T20:35:04.786Z,77.40
2018-06-04T20:37:46.333Z,77.40
2018-06-04T20:40:27.967Z,76.90
2018-06-04T20:43:09.419Z,77.50
2018-06-04T20:45:51.300Z,77.80
2018-06-04T20:48:33.924Z,77.40
2018-06-04T20:51:15.286Z,77.00
2018-06-04T20:53:56.837Z,76.60
2018-06-04T20:56:39.088Z,76.70
2018-06-04T20:59:21.196Z,76.40
2018-06-04T21:02:03.591Z,76.30
2018-06-04T21:04:45.055Z,76.10
2018-06-04T21:07:26.852Z,75.80
2018-06-04T21:10:08.448Z,75.80
2018-06-04T21:12:49.918Z,76.10
2018-06-04T21:15:31.257Z,76.40
2018-06-04T21:18:12.801Z,76.60
2018-06-04T21:20:55.063Z,76.90
2018-06-04T21:23:37.169Z,77.00
2018-06-04T21:26:18.622Z,77.30
2018-06-04T21:29:00.771Z,77.30
2018-06-04T21:31:42.235Z,77.50
2018-06-04T21:34:35.621Z,77.80
2018-06-04T21:37:17.308Z,77.80
2018-06-04T21:39:58.690Z,78.20
2018-06-04T21:42:40.067Z,78.30
2018-06-04T21:45:22.572Z,78.40
2018-06-04T21:48:04.211Z,78.40
2018-06-04T21:50:45.755Z,78.50
2018-06-04T21:53:27.142Z,78.60
2018-06-04T21:56:08.796Z,78.80
2018-06-04T21:58:50.327Z,78.90
2018-06-04T22:01:32.334Z,79.20
2018-06-04T22:04:13.791Z,79.60
2018-06-04T22:06:55.895Z,79.60
2018-06-04T22:09:37.235Z,80.00
2018-06-04T22:12:18.624Z,80.40
2018-06-04T22:15:00.111Z,80.90
2018-06-04T22:17:41.637Z,81.00
2018-06-04T22:20:24.010Z,81.40
2018-06-04T22:23:05.558Z,81.40
2018-06-04T22:25:47.058Z,81.20
2018-06-04T22:28:28.434Z,81.30
2018-06-04T22:31:09.867Z,81.40
2018-06-04T22:33:51.367Z,81.50
2018-06-04T22:37:03.490Z,81.70
2018-06-04T22:39:44.977Z,81.70
2018-06-04T22:42:27.004Z,81.80
2018-06-04T22:45:08.422Z,82.10
2018-06-04T22:47:49.651Z,82.00
2018-06-04T22:50:31.469Z,82.10
2018-06-04T22:53:12.819Z,82.10
2018-06-04T22:55:54.670Z,82.30
2018-06-04T22:58:36.149Z,82.10
2018-06-04T23:01:17.483Z,82.10
2018-06-04T23:03:59.843Z,82.20
2018-06-04T23:06:41.094Z,82.20
2018-06-04T23:09:23.175Z,82.20
2018-06-04T23:12:04.564Z,82.30
2018-06-04T23:14:45.893Z,82.10
2018-06-04T23:17:27.351Z,81.80
2018-06-04T23:20:08.605Z,82.10
2018-06-04T23:22:50.141Z,82.10
2018-06-04T23:25:31.538Z,81.30
2018-06-04T23:28:13.022Z,82.10
2018-06-04T23:30:54.594Z,82.50
2018-06-04T23:33:36.080Z,82.50
2018-06-04T23:36:17.417Z,82.50
2018-06-04T23:38:59.287Z,82.60
2018-06-04T23:41:40.708Z,82.50
2018-06-04T23:44:22.695Z,82.70
2018-06-04T23:47:04.554Z,83.10
2018-06-04T23:52:27.214Z,83.00
2018-06-04T23:55:08.631Z,82.90
2018-06-04T23:57:50.040Z,83.00
